Llanfairfechan, United Kingdom
Current Conditions -  °F | °C
As of 3:50 PM on Thursday 23 Oct 2014 (Local Time) from EGOV Reporting Station
Broken Clouds Broken Clouds  
Wind Chill: 59°   Ceiling: 7000
Heat Index: 59°   Visibility: 6mi
Dew Point: 57°   Wind: 23mph
Humidity: 94%   Direction: 210°SSW
Pressure: 29.88"   Gusts: NA
Location:  53.26°N, 3.97°W
Report Text: EGOV 231450Z 21020KT 9999 SCT011 SCT035 BKN070 15/14 Q1012 GRN TEMPO FEW011 BLU
Loading
Personal Weather Stations






























Interactive Weather Map
Tropical Storm Tracking
New forecast layout! Learn more

10-Day Weather Forecast

Advertisements
Track Severe Weather on mobile